createdAt,value
2023-01-29T01:07:13.446Z,36.96
2023-01-29T01:09:13.464Z,36.96
2023-01-29T01:10:14.127Z,36.95
2023-01-29T01:11:13.477Z,36.97
2023-01-29T01:12:13.477Z,36.96
2023-01-29T01:13:13.463Z,36.95
2023-01-29T01:14:13.463Z,36.97
2023-01-29T01:15:13.480Z,36.96
2023-01-29T01:16:13.511Z,36.94
2023-01-29T01:17:13.497Z,36.97
2023-01-29T01:18:13.493Z,36.95
2023-01-29T01:19:13.501Z,36.96
2023-01-29T01:20:13.522Z,36.91
2023-01-29T01:21:13.519Z,36.94
2023-01-29T01:22:13.665Z,36.93
2023-01-29T01:23:13.544Z,36.93
2023-01-29T01:24:13.664Z,36.93
2023-01-29T01:25:13.650Z,36.94
2023-01-29T01:26:13.584Z,36.90
2023-01-29T01:27:13.591Z,36.92
2023-01-29T01:28:14.314Z,36.93
2023-01-29T01:29:13.599Z,36.95
2023-01-29T01:30:13.725Z,36.92
2023-01-29T01:31:13.720Z,36.94
2023-01-29T01:32:13.644Z,36.94
2023-01-29T01:33:13.720Z,36.95
2023-01-29T01:34:13.643Z,36.93
2023-01-29T01:35:13.664Z,36.92
2023-01-29T01:36:13.660Z,36.90
2023-01-29T01:37:13.743Z,36.89
2023-01-29T01:38:13.680Z,36.94
2023-01-29T01:39:13.680Z,36.91
2023-01-29T01:40:13.855Z,36.90
2023-01-29T01:41:13.697Z,36.94
2023-01-29T01:42:13.696Z,36.90
2023-01-29T01:43:13.719Z,36.93
2023-01-29T01:44:13.708Z,36.90
2023-01-29T01:45:13.719Z,36.92
2023-01-29T01:46:13.801Z,36.95
2023-01-29T01:47:13.725Z,36.93
2023-01-29T01:48:13.748Z,36.93
2023-01-29T01:49:13.751Z,36.94
2023-01-29T01:50:13.977Z,36.93
2023-01-29T01:51:13.763Z,36.89
2023-01-29T01:52:13.826Z,36.89
2023-01-29T01:53:13.786Z,36.92
2023-01-29T01:54:13.806Z,36.90
2023-01-29T01:55:13.815Z,36.93
2023-01-29T01:56:13.791Z,36.91
2023-01-29T01:57:13.805Z,36.92
2023-01-29T01:58:13.822Z,36.84
2023-01-29T01:59:13.820Z,36.89
2023-01-29T02:00:13.984Z,36.87
2023-01-29T02:01:13.900Z,36.89
2023-01-29T02:02:13.892Z,36.88
2023-01-29T02:03:13.879Z,36.91
2023-01-29T02:04:13.898Z,36.91
2023-01-29T02:05:13.907Z,36.88
2023-01-29T02:06:13.908Z,36.91
2023-01-29T02:07:13.907Z,36.90
2023-01-29T02:08:13.936Z,36.91
2023-01-29T02:09:13.939Z,36.92
2023-01-29T02:10:14.064Z,36.92
2023-01-29T02:11:13.974Z,36.90
2023-01-29T02:12:13.988Z,36.92
2023-01-29T02:13:14.004Z,36.91
2023-01-29T02:14:14.075Z,36.89
2023-01-29T02:15:14.025Z,36.91
2023-01-29T02:16:14.071Z,36.90
2023-01-29T02:17:14.113Z,36.92
2023-01-29T02:18:14.071Z,36.91
2023-01-29T02:19:14.084Z,36.92
2023-01-29T02:20:14.301Z,36.93
2023-01-29T02:21:14.093Z,36.91
2023-01-29T02:22:14.109Z,36.90
2023-01-29T02:23:14.147Z,36.88
2023-01-29T02:24:14.225Z,36.90
2023-01-29T02:25:14.173Z,36.91
2023-01-29T02:26:14.141Z,36.90
2023-01-29T02:27:14.172Z,36.84
2023-01-29T02:28:14.178Z,36.88
2023-01-29T02:29:14.183Z,36.87
2023-01-29T02:30:14.345Z,36.88
2023-01-29T02:31:14.236Z,36.88
2023-01-29T02:32:14.207Z,36.88
2023-01-29T02:33:14.241Z,36.85
2023-01-29T02:34:14.249Z,36.86
2023-01-29T02:35:14.254Z,36.89
2023-01-29T02:36:14.330Z,36.89
2023-01-29T02:37:14.340Z,36.87
2023-01-29T02:38:14.296Z,36.89
2023-01-29T02:39:14.386Z,36.87
2023-01-29T02:40:14.897Z,36.90
2023-01-29T02:41:14.336Z,36.88
2023-01-29T02:42:14.348Z,36.91
2023-01-29T02:43:14.353Z,36.90
2023-01-29T02:44:14.381Z,36.92
2023-01-29T02:45:14.390Z,36.88
2023-01-29T02:46:14.432Z,36.88
2023-01-29T02:47:14.425Z,36.85
2023-01-29T02:48:14.441Z,36.86
2023-01-29T02:49:14.852Z,36.81
2023-01-29T02:50:14.886Z,36.84
2023-01-29T02:51:14.488Z,36.85
2023-01-29T02:52:14.528Z,36.84
2023-01-29T02:53:14.535Z,36.85
2023-01-29T02:54:14.538Z,36.84
2023-01-29T02:55:15.347Z,36.83
2023-01-29T02:56:14.562Z,36.83
2023-01-29T02:57:14.723Z,36.81
2023-01-29T02:58:14.597Z,36.85
2023-01-29T02:59:14.634Z,36.83
2023-01-29T03:00:14.893Z,36.82
2023-01-29T03:01:14.648Z,36.80
2023-01-29T03:02:14.790Z,36.84
2023-01-29T03:03:14.641Z,36.86
2023-01-29T03:04:14.716Z,36.85
2023-01-29T03:05:14.667Z,36.84
2023-01-29T03:06:14.771Z,36.87
2023-01-29T03:07:14.677Z,36.85
2023-01-29T03:08:14.691Z,36.85
2023-01-29T03:09:14.734Z,36.82
2023-01-29T03:10:14.999Z,36.83
2023-01-29T03:11:14.739Z,36.81
2023-01-29T03:12:14.744Z,36.82
2023-01-29T03:13:14.746Z,36.82
2023-01-29T03:14:14.747Z,36.81
2023-01-29T03:15:14.753Z,36.79
2023-01-29T03:16:14.846Z,36.81
2023-01-29T03:17:14.774Z,36.82
2023-01-29T03:18:14.792Z,36.83
2023-01-29T03:19:14.790Z,36.86
2023-01-29T03:20:15.307Z,36.82
2023-01-29T03:21:14.833Z,36.83
2023-01-29T03:22:14.849Z,36.82
2023-01-29T03:23:14.866Z,36.81
2023-01-29T03:24:14.883Z,36.82
2023-01-29T03:25:14.902Z,36.81
2023-01-29T03:26:14.895Z,36.85
2023-01-29T03:27:14.915Z,36.81
2023-01-29T03:28:14.910Z,36.80
2023-01-29T03:29:14.990Z,36.82
2023-01-29T03:30:15.369Z,36.78
2023-01-29T03:31:15.013Z,36.83
2023-01-29T03:32:15.047Z,36.81
2023-01-29T03:33:14.971Z,36.80
2023-01-29T03:34:14.982Z,36.81
2023-01-29T03:35:14.993Z,36.81
2023-01-29T03:36:15.011Z,36.80
2023-01-29T03:37:15.088Z,36.81
2023-01-29T03:38:15.034Z,36.82
2023-01-29T03:39:15.038Z,36.84
2023-01-29T03:40:15.542Z,36.83
2023-01-29T03:41:15.050Z,36.84
2023-01-29T03:42:15.063Z,36.80
2023-01-29T03:43:15.091Z,36.83
2023-01-29T03:44:15.099Z,36.86
2023-01-29T03:45:15.120Z,36.84
2023-01-29T03:46:15.122Z,36.83
2023-01-29T03:47:15.118Z,36.82
2023-01-29T03:48:15.135Z,36.81
2023-01-29T03:49:15.155Z,36.79
2023-01-29T03:50:15.537Z,36.82
2023-01-29T03:51:15.174Z,36.81
2023-01-29T03:52:15.186Z,36.79
2023-01-29T03:53:15.229Z,36.85
2023-01-29T03:54:15.193Z,36.78
2023-01-29T03:55:15.200Z,36.85
2023-01-29T03:56:15.228Z,36.82
2023-01-29T03:57:15.216Z,36.83
2023-01-29T03:58:15.223Z,36.78
2023-01-29T03:59:15.244Z,36.80
2023-01-29T04:00:15.721Z,36.76
2023-01-29T04:01:15.296Z,36.81
2023-01-29T04:02:15.284Z,36.78
2023-01-29T04:03:15.283Z,36.77
2023-01-29T04:04:15.351Z,36.80
2023-01-29T04:05:15.328Z,36.81
2023-01-29T04:06:15.327Z,36.80
2023-01-29T04:07:15.327Z,36.76
2023-01-29T04:08:15.351Z,36.77
2023-01-29T04:09:15.366Z,36.77
2023-01-29T04:10:15.675Z,36.80
2023-01-29T04:11:15.384Z,36.77
2023-01-29T04:12:15.399Z,36.75
2023-01-29T04:13:15.418Z,36.79
2023-01-29T04:14:15.422Z,36.81
2023-01-29T04:15:15.448Z,36.78
2023-01-29T04:16:15.489Z,36.79
2023-01-29T04:17:15.468Z,36.81
2023-01-29T04:18:15.490Z,36.80
2023-01-29T04:19:15.492Z,36.79
2023-01-29T04:20:16.015Z,36.78
2023-01-29T04:21:15.532Z,36.80
2023-01-29T04:22:15.534Z,36.83
2023-01-29T04:23:15.540Z,36.79
2023-01-29T04:24:15.653Z,36.79
2023-01-29T04:25:15.587Z,36.79
2023-01-29T04:26:15.740Z,36.77
2023-01-29T04:27:15.607Z,36.75
2023-01-29T04:28:15.588Z,36.76
2023-01-29T04:29:15.598Z,36.77
2023-01-29T04:30:16.502Z,36.76
2023-01-29T04:31:15.849Z,36.78
2023-01-29T04:33:15.636Z,36.79
2023-01-29T04:34:15.654Z,36.78
2023-01-29T04:35:15.883Z,36.79
2023-01-29T04:36:15.663Z,36.77
2023-01-29T04:37:15.687Z,36.73
2023-01-29T04:38:15.687Z,36.73
2023-01-29T04:39:15.669Z,36.73
2023-01-29T04:40:16.117Z,36.77
2023-01-29T04:41:15.883Z,36.76
2023-01-29T04:42:15.695Z,36.75
2023-01-29T04:43:15.697Z,36.76
2023-01-29T04:44:15.719Z,36.76
2023-01-29T04:45:15.730Z,36.72
2023-01-29T04:46:15.741Z,36.72
2023-01-29T04:47:15.789Z,36.73
2023-01-29T04:48:15.755Z,36.76
2023-01-29T04:49:15.775Z,36.74
2023-01-29T04:50:16.222Z,36.73
2023-01-29T04:51:15.871Z,36.74
2023-01-29T04:52:15.802Z,36.76
2023-01-29T04:53:15.840Z,36.75
2023-01-29T04:54:15.823Z,36.75
2023-01-29T04:55:15.839Z,36.75
2023-01-29T04:56:15.843Z,36.74
2023-01-29T04:57:15.867Z,36.76
2023-01-29T04:58:15.875Z,36.79
2023-01-29T04:59:15.891Z,36.74
2023-01-29T05:00:16.195Z,36.75
2023-01-29T05:01:15.903Z,36.71
2023-01-29T05:02:15.910Z,36.74
2023-01-29T05:03:15.935Z,36.76
2023-01-29T05:04:15.943Z,36.72
2023-01-29T05:05:15.950Z,36.76
2023-01-29T10:57:17.802Z,32.76
2023-01-29T11:04:17.567Z,32.59
2023-01-29T14:22:13.166Z,32.47
2023-01-29T14:23:13.165Z,32.48
2023-01-29T14:24:13.153Z,32.51
2023-01-29T14:25:13.575Z,32.54
2023-01-29T14:26:13.191Z,32.53
2023-01-29T14:27:13.130Z,32.61
2023-01-29T14:28:13.133Z,32.65
2023-01-29T14:29:16.473Z,32.66
2023-01-29T14:30:14.094Z,32.66
2023-01-29T14:31:13.158Z,32.71
2023-01-29T14:32:12.973Z,32.74
2023-01-29T14:33:12.936Z,32.74
2023-01-29T14:34:12.888Z,32.76
2023-01-29T14:35:12.899Z,32.78
2023-01-29T14:36:12.781Z,32.80
2023-01-29T14:37:12.736Z,32.82
2023-01-29T14:38:12.696Z,32.84
2023-01-29T14:39:12.644Z,32.87
2023-01-29T14:40:12.624Z,32.91
2023-01-29T15:08:12.380Z,33.43
2023-01-29T15:09:12.343Z,33.47
2023-01-29T15:10:22.285Z,33.50
2023-01-29T15:12:12.218Z,33.50
2023-01-29T15:13:12.146Z,33.53
2023-01-29T15:14:12.101Z,33.55
2023-01-29T15:15:12.145Z,33.56
2023-01-29T15:16:12.028Z,33.57
2023-01-29T15:17:11.952Z,33.60
2023-01-29T15:18:11.902Z,33.61
2023-01-29T15:19:11.838Z,33.62
2023-01-29T15:20:11.792Z,33.66
2023-01-29T15:21:11.828Z,33.66
2023-01-29T15:22:11.703Z,33.66
2023-01-29T15:23:11.743Z,33.70
2023-01-29T15:24:11.687Z,33.70
2023-01-29T15:25:11.580Z,33.70
2023-01-29T15:26:11.576Z,33.72
2023-01-29T15:27:11.477Z,33.71
2023-01-29T15:28:11.424Z,33.74
2023-01-29T15:29:11.372Z,33.76
2023-01-29T15:30:11.322Z,33.79
2023-01-29T15:31:11.358Z,33.82
2023-01-29T15:32:11.316Z,33.79
2023-01-29T15:33:11.205Z,33.82
2023-01-29T15:34:11.121Z,33.83
2023-01-29T15:35:11.081Z,33.86
2023-01-29T16:02:11.095Z,34.10
2023-01-29T17:42:11.130Z,34.70
2023-01-29T18:03:11.079Z,34.74
2023-01-29T18:04:11.231Z,34.78
2023-01-29T18:05:11.649Z,34.76
2023-01-29T18:06:11.149Z,34.76
2023-01-29T18:07:11.168Z,34.75
2023-01-29T18:08:11.195Z,34.77
2023-01-29T18:09:11.224Z,34.75
2023-01-29T18:10:11.250Z,34.81
2023-01-29T18:11:11.309Z,34.77
2023-01-29T18:12:11.377Z,34.79
2023-01-29T18:13:11.312Z,34.77
2023-01-29T18:14:13.963Z,34.77
2023-01-29T18:15:11.389Z,34.77
2023-01-29T18:16:12.176Z,34.77
2023-01-29T18:17:11.233Z,34.77
2023-01-29T18:18:11.191Z,34.82
2023-01-29T18:19:11.164Z,34.80
2023-01-29T18:20:11.131Z,34.79
2023-01-29T18:21:11.139Z,34.82
2023-01-29T18:22:11.072Z,34.83
2023-01-29T18:59:11.085Z,34.86
2023-01-29T19:10:11.212Z,34.89
2023-01-29T19:11:11.226Z,34.88
2023-01-29T19:12:11.251Z,34.91
2023-01-29T19:13:11.269Z,34.90
2023-01-29T19:14:11.365Z,34.91
2023-01-29T19:15:11.337Z,34.89
2023-01-29T19:16:11.377Z,34.91
2023-01-29T19:17:11.475Z,34.89
2023-01-29T19:18:13.675Z,34.89
2023-01-29T19:19:11.400Z,34.91
2023-01-29T19:20:11.363Z,34.93
2023-01-29T19:21:11.413Z,34.89
2023-01-29T19:22:11.321Z,34.91
2023-01-29T19:23:11.326Z,34.91
2023-01-29T19:24:11.281Z,34.92
2023-01-29T19:25:11.221Z,34.91
2023-01-29T19:26:11.261Z,34.90
2023-01-29T19:27:11.200Z,34.89
2023-01-29T19:28:11.110Z,34.91
2023-01-29T19:29:11.079Z,34.90
2023-01-29T19:30:11.071Z,34.92
2023-01-29T20:12:11.185Z,34.93
2023-01-29T20:26:11.129Z,34.98
2023-01-29T20:27:11.109Z,34.99
2023-01-29T20:28:11.204Z,35.00
2023-01-29T20:29:11.139Z,34.97
2023-01-29T20:30:11.144Z,34.96
2023-01-29T20:31:11.169Z,34.96
2023-01-29T20:32:11.130Z,34.99
2023-01-29T20:33:11.129Z,34.99
2023-01-29T20:34:11.121Z,34.98
2023-01-29T20:35:11.165Z,34.96
2023-01-29T20:36:11.164Z,34.99
2023-01-29T20:37:11.177Z,34.98
2023-01-29T20:38:11.190Z,34.99
2023-01-29T20:39:11.699Z,34.97
2023-01-29T20:40:11.691Z,34.97
2023-01-29T20:41:11.190Z,35.01
2023-01-29T20:42:11.202Z,34.98
2023-01-29T20:43:11.194Z,35.00
2023-01-29T20:44:11.212Z,34.98
2023-01-29T20:45:11.226Z,34.99
2023-01-29T20:46:11.342Z,34.99
2023-01-29T20:47:11.204Z,35.00
2023-01-29T20:48:11.225Z,35.00
2023-01-29T20:49:11.287Z,35.00
2023-01-29T20:50:11.212Z,34.99
2023-01-29T20:51:11.227Z,34.99
2023-01-29T20:52:11.214Z,34.97
2023-01-29T20:53:11.231Z,34.98
2023-01-29T20:54:11.169Z,34.98
2023-01-29T20:55:11.141Z,34.97
2023-01-29T20:56:11.199Z,34.99
2023-01-29T20:57:11.099Z,35.02
2023-01-29T20:58:11.084Z,35.00
2023-01-29T20:59:11.623Z,35.00
2023-01-29T21:00:11.151Z,34.98
2023-01-29T21:01:11.220Z,35.01
2023-01-29T21:02:11.107Z,34.99
2023-01-29T21:03:11.088Z,34.98
2023-01-29T21:05:11.079Z,34.99
2023-01-29T21:10:11.704Z,35.01
2023-01-29T21:33:11.704Z,34.99
2023-01-29T21:37:11.216Z,35.03
2023-01-29T22:52:08.864Z,34.98
2023-01-29T23:08:08.431Z,34.96
2023-01-29T23:09:08.412Z,34.96
2023-01-29T23:10:08.373Z,34.95
2023-01-29T23:11:08.359Z,34.95
2023-01-29T23:12:08.332Z,34.94
2023-01-29T23:13:08.294Z,34.97
2023-01-29T23:14:08.285Z,34.97
2023-01-29T23:15:08.257Z,34.96
2023-01-29T23:16:08.356Z,34.95
2023-01-29T23:17:08.207Z,34.95
2023-01-29T23:18:08.187Z,34.94
2023-01-29T23:19:08.166Z,34.96
2023-01-29T23:20:08.140Z,34.98
2023-01-29T23:21:08.115Z,34.95
2023-01-29T23:22:08.084Z,34.95
2023-01-29T23:23:08.062Z,34.97
2023-01-29T23:24:08.047Z,34.95
2023-01-29T23:25:08.078Z,34.96
2023-01-29T23:26:08.770Z,34.95
2023-01-29T23:27:07.964Z,34.96
2023-01-29T23:28:07.929Z,34.95
2023-01-29T23:29:07.931Z,34.94
2023-01-29T23:30:07.896Z,34.94
2023-01-29T23:31:07.914Z,34.96
2023-01-29T23:32:07.854Z,34.95
2023-01-29T23:33:08.339Z,34.93
2023-01-29T23:34:07.794Z,34.94
2023-01-29T23:35:07.767Z,34.91
2023-01-29T23:36:07.737Z,34.91
2023-01-29T23:37:07.726Z,34.92
2023-01-29T23:38:07.714Z,34.92
2023-01-29T23:39:07.685Z,34.93
2023-01-29T23:40:07.647Z,34.91
2023-01-29T23:41:07.772Z,34.91
2023-01-29T23:42:07.583Z,34.93
2023-01-29T23:43:07.575Z,34.91
2023-01-29T23:44:07.551Z,34.91
2023-01-29T23:45:07.562Z,34.89
2023-01-29T23:46:07.541Z,34.92
2023-01-29T23:47:07.485Z,34.91
2023-01-29T23:48:07.466Z,34.88
2023-01-29T23:49:07.459Z,34.88
2023-01-29T23:50:07.418Z,34.87
2023-01-29T23:51:07.395Z,34.88
2023-01-29T23:52:07.374Z,34.88
2023-01-29T23:53:08.252Z,34.87
2023-01-29T23:54:07.320Z,34.88
2023-01-29T23:55:07.311Z,34.87
2023-01-29T23:56:07.270Z,34.84
2023-01-29T23:57:07.250Z,34.83
2023-01-29T23:58:07.225Z,34.84
2023-01-29T23:59:07.213Z,34.83
